createdAt,value
2023-04-30T00:04:22.771Z,14.82
2023-04-30T00:09:25.955Z,12.45
2023-04-30T00:14:29.054Z,11.88
2023-04-30T00:19:33.643Z,13.40
2023-04-30T00:24:36.797Z,12.40
2023-04-30T00:29:39.960Z,14.13
2023-04-30T00:34:44.569Z,13.48
2023-04-30T00:39:47.756Z,11.13
2023-04-30T00:44:50.920Z,10.70
2023-04-30T00:49:55.589Z,10.43
2023-04-30T00:54:59.046Z,11.50
2023-04-30T01:00:02.605Z,13.25
2023-04-30T01:05:07.908Z,12.73
2023-04-30T01:10:11.513Z,12.18
2023-04-30T01:15:20.089Z,10.73
2023-04-30T01:20:25.554Z,10.60
2023-04-30T01:25:36.642Z,11.95
2023-04-30T01:30:44.824Z,14.45
2023-04-30T01:35:57.501Z,13.27
2023-04-30T01:41:07.405Z,11.63
2023-04-30T01:46:19.829Z,11.35
2023-04-30T01:51:26.214Z,11.05
2023-04-30T01:56:32.428Z,13.73
2023-04-30T02:01:38.031Z,13.60
2023-04-30T02:06:41.534Z,14.07
2023-04-30T02:11:45.335Z,14.57
2023-04-30T02:16:50.112Z,15.55
2023-04-30T02:21:53.345Z,10.38
2023-04-30T02:26:56.486Z,12.60
2023-04-30T02:32:01.244Z,14.27
2023-04-30T02:37:04.751Z,11.15
2023-04-30T02:42:08.032Z,14.52
2023-04-30T02:47:12.604Z,11.15
2023-04-30T02:52:15.776Z,10.13
2023-04-30T02:57:18.967Z,11.68
2023-04-30T03:02:23.781Z,13.38
2023-04-30T03:07:27.547Z,12.60
2023-04-30T03:12:30.600Z,12.98
2023-04-30T03:17:35.183Z,13.75
2023-04-30T03:22:38.286Z,11.07
2023-04-30T03:27:41.405Z,14.43
2023-04-30T03:32:45.899Z,16.38
2023-04-30T03:37:49.017Z,11.57
2023-04-30T03:42:52.578Z,11.65
2023-04-30T03:47:57.284Z,10.82
2023-04-30T03:53:00.666Z,13.77
2023-04-30T03:58:04.103Z,14.35
2023-04-30T04:03:08.831Z,14.98
2023-04-30T04:08:11.956Z,16.33
2023-04-30T04:13:15.194Z,16.25
2023-04-30T04:18:19.756Z,16.08
2023-04-30T04:23:22.992Z,16.52
2023-04-30T04:28:26.420Z,17.77
2023-04-30T04:33:31.072Z,14.40
2023-04-30T04:38:34.526Z,14.63
2023-04-30T04:43:39.273Z,13.85
2023-04-30T04:48:44.314Z,17.60
2023-04-30T04:53:47.669Z,17.10
2023-04-30T04:58:50.811Z,13.02
2023-04-30T05:03:55.516Z,13.90
2023-04-30T05:08:58.587Z,15.48
2023-04-30T05:14:01.672Z,18.42
2023-04-30T05:19:06.141Z,16.77
2023-04-30T05:24:09.338Z,19.85
2023-04-30T05:29:12.620Z,17.20
2023-04-30T05:34:17.108Z,15.15
2023-04-30T05:39:20.287Z,22.83
2023-04-30T05:44:23.438Z,18.55
2023-04-30T05:49:28.385Z,17.25
2023-04-30T05:54:31.492Z,17.75
2023-04-30T05:59:34.689Z,14.50
2023-04-30T06:04:39.215Z,12.65
2023-04-30T06:09:42.345Z,12.45
2023-04-30T06:14:45.943Z,12.95
2023-04-30T06:19:50.417Z,15.90
2023-04-30T06:24:53.593Z,14.98
2023-04-30T06:29:57.132Z,12.93
2023-04-30T06:35:01.947Z,14.70
2023-04-30T06:40:06.188Z,13.98
2023-04-30T06:45:09.989Z,14.60
2023-04-30T06:50:15.748Z,10.88
2023-04-30T06:55:19.084Z,12.77
2023-04-30T07:00:22.143Z,12.32
2023-04-30T07:05:26.599Z,13.55
2023-04-30T07:10:29.761Z,13.27
2023-04-30T07:15:32.869Z,12.02
2023-04-30T07:20:37.425Z,13.38
2023-04-30T07:25:40.937Z,14.52
2023-04-30T07:30:44.030Z,17.08
2023-04-30T07:35:48.491Z,12.20
2023-04-30T07:40:51.623Z,17.67
2023-04-30T07:45:55.058Z,11.35
2023-04-30T07:50:59.860Z,13.45
2023-04-30T07:56:03.004Z,12.25
2023-04-30T08:01:06.556Z,14.50
2023-04-30T08:06:11.069Z,13.93
2023-04-30T08:11:15.432Z,11.20
2023-04-30T08:16:18.623Z,11.20
2023-04-30T08:21:23.131Z,11.77
2023-04-30T08:26:26.721Z,10.77
2023-04-30T08:31:30.050Z,13.50
2023-04-30T08:36:34.707Z,9.02
2023-04-30T08:41:38.056Z,10.98
2023-04-30T08:46:43.655Z,9.73
2023-04-30T08:51:48.419Z,10.40
2023-04-30T08:56:51.568Z,10.02
2023-04-30T09:01:55.096Z,12.68
2023-04-30T09:07:00.848Z,11.40
2023-04-30T09:12:17.816Z,8.48
2023-04-30T09:17:22.838Z,9.88
2023-04-30T09:22:27.365Z,8.88
2023-04-30T09:27:30.469Z,12.25
2023-04-30T09:32:33.573Z,8.75
2023-04-30T09:37:39.205Z,8.93
2023-04-30T09:42:43.610Z,9.85
2023-04-30T09:47:47.094Z,9.18
2023-04-30T09:52:54.591Z,11.65
2023-04-30T09:57:57.843Z,12.40
2023-04-30T10:03:02.845Z,9.32
2023-04-30T10:08:08.935Z,11.48
2023-04-30T10:13:15.219Z,12.60
2023-04-30T10:18:20.292Z,9.38
2023-04-30T10:23:25.475Z,10.38
2023-04-30T10:28:28.917Z,10.90
2023-04-30T10:33:35.835Z,8.00
2023-04-30T10:38:40.836Z,9.82
2023-04-30T10:43:44.009Z,10.57
2023-04-30T10:48:47.324Z,8.18
2023-04-30T10:53:52.926Z,10.20
2023-04-30T10:58:56.101Z,7.68
2023-04-30T11:04:06.362Z,10.35
2023-04-30T11:09:10.880Z,8.43
2023-04-30T11:14:14.451Z,7.55
2023-04-30T11:19:17.773Z,7.80
2023-04-30T11:24:22.307Z,7.50
2023-04-30T11:29:25.860Z,7.40
2023-04-30T11:34:28.996Z,14.07
2023-04-30T11:39:35.166Z,9.88
2023-04-30T11:44:39.010Z,7.72
2023-04-30T11:49:42.129Z,9.02
2023-04-30T11:54:46.619Z,8.35
2023-04-30T11:59:49.758Z,9.88
2023-04-30T12:04:53.325Z,7.60
2023-04-30T12:09:57.975Z,6.70
2023-04-30T12:15:11.465Z,8.02
2023-04-30T12:20:15.860Z,5.15
2023-04-30T12:25:21.647Z,10.35
2023-04-30T12:30:25.453Z,5.78
2023-04-30T12:35:29.655Z,5.03
2023-04-30T12:40:34.163Z,7.00
2023-04-30T12:45:43.427Z,5.80
2023-04-30T12:50:52.481Z,5.72
2023-04-30T12:56:09.979Z,6.20
2023-04-30T13:01:13.836Z,6.20
2023-04-30T13:06:17.254Z,6.45
2023-04-30T13:11:21.929Z,5.70
2023-04-30T13:16:26.065Z,5.30
2023-04-30T13:21:29.512Z,4.35
2023-04-30T13:26:33.972Z,5.35
2023-04-30T13:31:37.418Z,4.70
2023-04-30T13:36:40.606Z,6.20
2023-04-30T13:41:45.086Z,5.60
2023-04-30T13:46:48.230Z,5.57
2023-04-30T13:51:51.479Z,6.25
2023-04-30T13:56:55.988Z,5.18
2023-04-30T14:01:59.119Z,5.13
2023-04-30T14:07:02.433Z,5.90
2023-04-30T14:12:07.034Z,6.13
2023-04-30T14:17:10.175Z,5.53
2023-04-30T14:22:13.406Z,4.50
2023-04-30T14:27:17.857Z,2.40
2023-04-30T14:32:21.062Z,4.97
2023-04-30T14:37:25.169Z,5.05
2023-04-30T14:42:29.722Z,6.35
2023-04-30T14:47:32.891Z,4.70
2023-04-30T14:52:36.051Z,3.90
2023-04-30T14:57:41.020Z,3.92
2023-04-30T15:02:44.359Z,4.75
2023-04-30T15:07:47.515Z,2.08
2023-04-30T15:12:52.287Z,3.17
2023-04-30T15:17:55.558Z,4.18
2023-04-30T15:22:59.233Z,4.28
2023-04-30T15:28:03.897Z,2.78
2023-04-30T15:33:07.091Z,2.22
2023-04-30T15:38:10.278Z,4.85
2023-04-30T15:43:14.923Z,4.97
2023-04-30T15:48:18.125Z,4.15
2023-04-30T15:53:21.211Z,2.92
2023-04-30T15:58:25.655Z,2.92
2023-04-30T16:03:28.914Z,2.92
2023-04-30T16:08:32.154Z,3.50
2023-04-30T16:13:36.652Z,3.47
2023-04-30T16:18:39.764Z,4.30
2023-04-30T16:23:43.131Z,4.40
2023-04-30T16:28:47.842Z,4.70
2023-04-30T16:33:51.010Z,3.83
2023-04-30T16:38:54.137Z,4.28
2023-04-30T16:43:59.259Z,3.13
2023-04-30T16:49:02.396Z,3.72
2023-04-30T16:54:05.495Z,4.50
2023-04-30T16:59:09.989Z,4.47
2023-04-30T17:04:14.215Z,5.15
2023-04-30T17:09:17.558Z,4.15
2023-04-30T17:14:22.146Z,4.38
2023-04-30T17:19:25.316Z,3.47
2023-04-30T17:24:28.599Z,2.55
2023-04-30T17:29:33.074Z,5.13
2023-04-30T17:34:36.484Z,4.53
2023-04-30T17:39:39.543Z,6.82
2023-04-30T17:44:43.972Z,7.78
2023-04-30T17:49:47.079Z,5.65
2023-04-30T17:54:50.193Z,4.90
2023-04-30T17:59:55.000Z,3.58
2023-04-30T18:04:58.259Z,4.10
2023-04-30T18:10:01.496Z,3.67
2023-04-30T18:15:06.820Z,3.60
2023-04-30T18:20:11.961Z,5.07
2023-04-30T18:25:17.108Z,3.30
2023-04-30T18:30:21.875Z,5.50
2023-04-30T18:35:24.950Z,5.03
2023-04-30T18:40:28.314Z,4.75
2023-04-30T18:45:32.887Z,4.10
2023-04-30T18:50:35.979Z,5.47
2023-04-30T18:55:39.207Z,6.57
2023-04-30T19:00:43.940Z,4.72
2023-04-30T19:05:47.101Z,4.55
2023-04-30T19:10:50.758Z,5.55
2023-04-30T19:15:55.862Z,5.63
2023-04-30T19:21:00.243Z,4.15
2023-04-30T19:26:03.457Z,7.18
2023-04-30T19:31:08.356Z,6.93
2023-04-30T19:36:11.717Z,6.85
2023-04-30T19:41:14.833Z,4.28
2023-04-30T19:46:19.492Z,5.07
2023-04-30T19:51:22.684Z,5.10
2023-04-30T19:56:25.811Z,8.18
2023-04-30T20:01:30.440Z,8.85
2023-04-30T20:06:33.660Z,7.65
2023-04-30T20:11:36.867Z,6.70
2023-04-30T20:16:41.944Z,6.00
2023-04-30T20:21:45.052Z,6.68
2023-04-30T20:26:48.168Z,5.22
2023-04-30T20:31:53.168Z,4.93
2023-04-30T20:36:56.283Z,7.32
2023-04-30T20:42:01.403Z,9.48
2023-04-30T20:47:06.429Z,7.05
2023-04-30T20:52:09.701Z,5.18
2023-04-30T20:57:12.814Z,6.70
2023-04-30T21:02:17.279Z,5.82
2023-04-30T21:07:20.400Z,7.43
2023-04-30T21:12:23.593Z,6.00
2023-04-30T21:17:28.291Z,9.05
2023-04-30T21:22:31.840Z,7.45
2023-04-30T21:27:35.096Z,8.93
2023-04-30T21:32:39.625Z,11.05
2023-04-30T21:37:43.100Z,6.78
2023-04-30T21:42:46.135Z,8.10
2023-04-30T21:47:50.646Z,9.18
2023-04-30T21:52:53.976Z,10.70
2023-04-30T21:57:57.097Z,8.55
2023-04-30T22:03:01.575Z,10.82
2023-04-30T22:08:05.364Z,10.30
2023-04-30T22:13:08.613Z,11.68
2023-04-30T22:18:13.072Z,8.05
2023-04-30T22:23:16.747Z,8.07
2023-04-30T22:28:21.004Z,7.90
2023-04-30T22:33:25.906Z,8.95
2023-04-30T22:38:29.247Z,7.25
2023-04-30T22:43:32.457Z,8.60
2023-04-30T22:48:36.897Z,7.18
2023-04-30T22:53:40.028Z,7.25
2023-04-30T22:58:43.121Z,6.78
2023-04-30T23:03:47.692Z,10.63
2023-04-30T23:08:51.092Z,6.05
2023-04-30T23:13:54.224Z,7.20
2023-04-30T23:18:58.684Z,8.60
2023-04-30T23:24:01.780Z,7.45
2023-04-30T23:29:04.828Z,11.60
2023-04-30T23:34:09.311Z,6.57
2023-04-30T23:39:12.421Z,13.07
2023-04-30T23:44:15.659Z,10.50
2023-04-30T23:49:24.437Z,11.38
2023-04-30T23:54:27.649Z,10.35
2023-04-30T23:59:30.700Z,10.50
